Time;durP1;ratioP1;P1;durP2;ratioP2;P2;SDS_P1;SDS_P2;PMS_P1;PMS_P2;Temp;Humidity;BMP_temperature;BMP_pressure;BME280_temperature;BME280_humidity;BME280_pressure;Samples;Min_cycle;Max_cycle;Signal;HPM_P1;HPM_P2
2024/01/07 00:01:23;;;;;;;;;2.33;2.33;;;;;20.88;41.49;101739.50;6400548;22;45204;-75
2024/01/07 00:03:48;;;;;;;;;3.00;2.00;;;;;20.87;41.48;101743.16;6398995;22;46114;-76
2024/01/07 00:06:14;;;;;;;;;2.00;2.00;;;;;20.73;41.28;101721.53;6399693;22;45286;-76
2024/01/07 00:08:39;;;;;;;;;2.00;2.00;;;;;20.88;41.42;101750.09;6400377;22;45277;-75
2024/01/07 00:11:04;;;;;;;;;1.67;1.67;;;;;20.71;41.69;101721.66;6400245;22;45259;-74
2024/01/07 00:13:30;;;;;;;;;1.67;1.67;;;;;20.83;41.26;101739.97;6399391;22;59361;-75
2024/01/07 00:15:55;;;;;;;;;2.00;2.00;;;;;20.84;41.17;101745.09;6400053;22;45323;-76
2024/01/07 00:18:21;;;;;;;;;2.67;2.67;;;;;20.53;41.34;101697.03;6399424;22;45236;-75
2024/01/07 00:20:47;;;;;;;;;2.67;2.00;;;;;20.50;41.54;101693.72;6399881;22;45297;-76
2024/01/07 00:23:12;;;;;;;;;2.00;2.00;;;;;20.86;41.48;101752.91;6399721;22;46191;-75
2024/01/07 00:25:37;;;;;;;;;2.00;2.00;;;;;20.85;41.72;101753.88;6399919;22;45255;-75
2024/01/07 00:28:03;;;;;;;;;1.00;1.00;;;;;20.85;41.45;101759.16;6399493;22;49789;-75
2024/01/07 00:30:29;;;;;;;;;3.00;1.00;;;;;20.85;41.43;101762.63;6399613;22;45211;-75
2024/01/07 00:32:54;;;;;;;;;2.00;2.00;;;;;20.81;41.42;101755.16;6398857;22;46825;-75
2024/01/07 00:35:20;;;;;;;;;2.00;2.00;;;;;20.79;41.62;101760.56;6371026;22;45236;-75
2024/01/07 00:37:45;;;;;;;;;4.00;2.00;;;;;20.83;41.41;101766.41;6400013;22;45192;-76
2024/01/07 00:40:12;;;;;;;;;1.67;1.67;;;;;20.33;41.35;101690.03;6399847;22;45399;-75
2024/01/07 00:42:37;;;;;;;;;2.00;2.00;;;;;20.83;41.58;101767.25;6399653;22;46068;-76
2024/01/07 00:45:02;;;;;;;;;2.67;2.00;;;;;20.66;41.33;101742.44;6399316;22;45199;-74
2024/01/07 00:47:28;;;;;;;;;3.00;2.00;;;;;20.63;41.59;101727.69;6399836;22;45296;-74
2024/01/07 00:49:53;;;;;;;;;1.67;1.00;;;;;20.80;41.54;101759.59;6399669;22;45426;-76
2024/01/07 00:52:19;;;;;;;;;1.33;1.33;;;;;20.81;41.32;101765.75;6399202;22;48206;-75
2024/01/07 00:54:44;;;;;;;;;2.00;2.00;;;;;20.80;41.38;101761.41;6399301;22;45370;-73
2024/01/07 00:57:12;;;;;;;;;2.67;2.00;;;;;20.80;41.52;101770.19;6399852;22;45526;-76
2024/01/07 00:59:37;;;;;;;;;2.33;2.33;;;;;20.59;41.71;101741.38;6399421;22;45323;-74
2024/01/07 01:02:03;;;;;;;;;2.33;2.00;;;;;20.69;41.36;101760.66;6399064;22;45908;-76
2024/01/07 01:04:28;;;;;;;;;2.67;1.33;;;;;20.74;41.33;101768.97;6399468;22;45351;-76
2024/01/07 01:06:53;;;;;;;;;1.00;1.00;;;;;20.78;41.10;101777.44;6399377;22;45221;-76
2024/01/07 01:09:19;;;;;;;;;2.00;2.00;;;;;20.78;41.18;101780.09;6399718;22;45213;-76
2024/01/07 01:11:44;;;;;;;;;2.33;1.00;;;;;20.71;41.24;101763.16;6398538;22;60990;-76
2024/01/07 01:14:09;;;;;;;;;3.33;2.00;;;;;20.78;41.46;101776.59;6370797;22;45234;-75
2024/01/07 01:16:35;;;;;;;;;4.00;3.00;;;;;20.78;41.02;101780.09;6398753;22;45170;-77
2024/01/07 01:19:00;;;;;;;;;1.00;1.00;;;;;20.78;41.57;101782.75;6370847;22;45363;-76
2024/01/07 01:21:25;;;;;;;;;1.00;1.00;;;;;20.68;41.43;101764.28;6399529;22;46168;-75
2024/01/07 01:23:50;;;;;;;;;3.33;2.33;;;;;20.78;41.16;101781.91;6399399;22;45164;-76
2024/01/07 01:26:16;;;;;;;;;2.67;2.67;;;;;20.77;41.36;101783.72;6399430;22;45202;-75
2024/01/07 01:28:41;;;;;;;;;2.00;2.00;;;;;20.78;41.39;101784.53;6399724;22;45519;-75
2024/01/07 01:31:06;;;;;;;;;2.00;2.00;;;;;20.77;41.06;101789.00;6370051;22;47470;-75
2024/01/07 01:33:32;;;;;;;;;1.67;1.67;;;;;20.77;41.42;101793.44;6399064;22;45215;-75
2024/01/07 01:35:57;;;;;;;;;4.67;2.00;;;;;20.73;41.12;101787.63;6399462;22;45130;-76
2024/01/07 01:38:22;;;;;;;;;1.00;1.00;;;;;20.77;41.30;101796.94;6399215;22;49723;-75
2024/01/07 01:40:54;;;;;;;;;3.00;2.00;;;;;20.77;41.46;101796.94;6399176;22;46050;-75
2024/01/07 01:43:26;;;;;;;;;3.00;1.33;;;;;20.71;40.93;101781.69;6399440;22;45240;-75
2024/01/07 01:45:53;;;;;;;;;1.67;1.67;;;;;20.63;41.18;101777.13;6398401;22;45360;-76
2024/01/07 01:48:18;;;;;;;;;2.67;2.00;;;;;20.73;41.25;101799.06;6399578;22;45467;-75
2024/01/07 01:50:44;;;;;;;;;2.33;2.33;;;;;20.75;41.09;101790.97;6371942;22;47251;-74
2024/01/07 01:53:10;;;;;;;;;2.00;2.00;;;;;20.70;41.19;101794.06;6371917;22;45328;-75
2024/01/07 01:55:35;;;;;;;;;2.00;2.00;;;;;20.75;40.99;101798.91;6400680;22;45224;-76
2024/01/07 01:58:03;;;;;;;;;2.67;2.67;;;;;20.71;40.98;101790.41;6400581;22;45171;-75
2024/01/07 02:00:29;;;;;;;;;2.33;1.67;;;;;20.73;41.05;101801.69;6400394;22;46465;-75
2024/01/07 02:02:54;;;;;;;;;2.00;2.00;;;;;20.73;41.02;101800.88;6400161;22;45281;-76
2024/01/07 02:05:20;;;;;;;;;2.00;2.00;;;;;20.72;41.17;101800.03;6400483;22;45291;-75
2024/01/07 02:07:46;;;;;;;;;3.00;1.00;;;;;20.39;41.02;101741.47;6400516;22;45280;-75
2024/01/07 02:10:12;;;;;;;;;0.67;0.67;;;;;20.72;40.98;101800.03;6400964;22;46143;-75
2024/01/07 02:12:37;;;;;;;;;1.00;1.00;;;;;20.40;41.23;101745.81;6400296;22;45294;-75
2024/01/07 02:15:03;;;;;;;;;1.67;1.67;;;;;20.60;41.06;101777.41;6372242;22;45303;-75
2024/01/07 02:17:28;;;;;;;;;3.00;3.00;;;;;20.72;41.34;101802.66;6400506;22;45335;-75
2024/01/07 02:19:54;;;;;;;;;2.67;2.00;;;;;20.68;40.95;101795.19;6400796;22;45525;-76
2024/01/07 02:22:19;;;;;;;;;2.00;2.00;;;;;20.72;41.05;101799.19;6400872;22;45253;-76
2024/01/07 02:24:44;;;;;;;;;1.67;1.67;;;;;20.72;41.29;101807.13;6400340;22;45491;-76
2024/01/07 02:27:10;;;;;;;;;2.00;1.00;;;;;20.62;41.05;101792.16;6400939;22;45191;-75
2024/01/07 02:29:35;;;;;;;;;3.00;2.00;;;;;20.71;41.12;101808.13;6399708;22;46745;-75
2024/01/07 02:32:01;;;;;;;;;4.00;1.67;;;;;20.54;40.71;101786.75;6400642;22;45282;-75
2024/01/07 02:34:26;;;;;;;;;1.67;1.67;;;;;20.67;40.82;101802.28;6400426;22;47934;-75
2024/01/07 02:36:51;;;;;;;;;0.67;0.67;;;;;20.68;40.82;101805.75;6400924;22;45859;-75
2024/01/07 02:39:17;;;;;;;;;1.33;1.33;;;;;20.71;40.90;101810.75;6400171;22;54968;-73
2024/01/07 02:41:42;;;;;;;;;1.67;1.33;;;;;20.71;40.80;101808.13;6400255;22;45207;-73
2024/01/07 02:44:07;;;;;;;;;2.00;2.00;;;;;20.67;40.85;101804.09;6400006;22;45214;-76
2024/01/07 02:46:33;;;;;;;;;2.00;2.00;;;;;20.58;40.62;101784.66;6400722;22;45140;-76
2024/01/07 02:48:58;;;;;;;;;1.00;1.00;;;;;20.63;40.84;101793.00;6400030;22;46998;-76
2024/01/07 02:51:23;;;;;;;;;2.00;1.33;;;;;20.70;40.44;101815.22;6400030;22;47206;-76
2024/01/07 02:53:49;;;;;;;;;1.33;1.00;;;;;20.71;40.55;101816.06;6400578;22;45366;-76
2024/01/07 02:56:14;;;;;;;;;1.67;1.33;;;;;20.70;40.66;101812.56;6400757;22;45396;-73
2024/01/07 02:58:39;;;;;;;;;1.00;1.00;;;;;20.67;40.73;101806.72;6399386;22;46451;-73
2024/01/07 03:01:09;;;;;;;;;2.00;2.00;;;;;20.28;40.81;101748.63;6400589;22;45336;-76
2024/01/07 03:03:34;;;;;;;;;1.00;1.00;;;;;20.70;40.97;101811.72;6400208;22;45185;-75
2024/01/07 03:06:00;;;;;;;;;2.00;2.00;;;;;20.71;40.56;101818.69;6399974;22;45192;-76
2024/01/07 03:08:25;;;;;;;;;2.00;2.00;;;;;20.40;40.83;101769.59;6370900;22;57376;-75
2024/01/07 03:10:50;;;;;;;;;1.00;1.00;;;;;20.70;40.90;101819.66;6400499;22;45300;-76
2024/01/07 03:13:16;;;;;;;;;1.33;1.33;;;;;20.69;40.71;101816.19;6400103;22;45295;-76
2024/01/07 03:15:41;;;;;;;;;1.00;1.00;;;;;20.50;40.67;101793.34;6400292;22;45218;-75
2024/01/07 03:18:06;;;;;;;;;2.00;2.00;;;;;20.70;40.87;101819.66;6399636;22;52622;-76
2024/01/07 03:20:31;;;;;;;;;1.00;1.00;;;;;20.69;40.67;101816.19;6400211;22;45199;-76
2024/01/07 03:22:59;;;;;;;;;1.00;1.00;;;;;20.70;40.47;101814.38;6400610;22;45137;-76
2024/01/07 03:25:24;;;;;;;;;2.00;1.00;;;;;20.67;40.38;101815.50;6400548;22;45451;-76
2024/01/07 03:27:50;;;;;;;;;2.00;2.00;;;;;20.70;40.28;101825.78;6399011;22;62288;-75
2024/01/07 03:30:15;;;;;;;;;3.00;3.00;;;;;20.70;40.40;101827.59;6400349;22;45286;-75
2024/01/07 03:32:41;;;;;;;;;1.00;1.00;;;;;20.56;40.67;101813.03;6400199;22;45294;-75
2024/01/07 03:35:08;;;;;;;;;2.67;1.33;;;;;20.69;40.66;101831.22;6400124;22;45600;-75
2024/01/07 03:37:34;;;;;;;;;1.00;1.00;;;;;20.69;40.49;101825.91;6399677;22;46320;-75
2024/01/07 03:39:59;;;;;;;;;1.00;1.00;;;;;20.68;40.50;101833.03;6399337;22;45213;-75
2024/01/07 03:42:24;;;;;;;;;3.00;1.00;;;;;20.69;40.29;101828.56;6399960;22;45235;-76
2024/01/07 03:44:50;;;;;;;;;2.67;1.33;;;;;20.63;40.67;101830.00;6400192;22;47596;-75
2024/01/07 03:47:16;;;;;;;;;1.00;1.00;;;;;20.67;40.41;101835.81;6399804;22;45889;-75
2024/01/07 03:49:41;;;;;;;;;2.67;1.67;;;;;20.56;40.16;101820.97;6399831;22;45192;-76
2024/01/07 03:52:07;;;;;;;;;1.33;1.33;;;;;20.68;40.51;101834.84;6400074;22;45659;-75
2024/01/07 03:54:33;;;;;;;;;1.00;1.00;;;;;20.54;40.21;101817.66;6399960;22;45368;-75
2024/01/07 03:56:58;;;;;;;;;1.00;1.00;;;;;20.57;40.38;101823.50;6400266;22;45267;-75
2024/01/07 03:59:25;;;;;;;;;1.00;1.00;;;;;20.66;40.19;101829.69;6400471;22;45271;-75
2024/01/07 04:01:50;;;;;;;;;2.00;2.00;;;;;20.65;40.16;101843.91;6399879;22;45320;-75
2024/01/07 04:04:16;;;;;;;;;1.00;1.00;;;;;20.56;40.09;101827.09;6400298;22;45367;-76
2024/01/07 04:06:41;;;;;;;;;1.33;1.33;;;;;20.62;40.50;101831.81;6400260;22;45308;-74
2024/01/07 04:09:08;;;;;;;;;4.00;1.00;;;;;20.66;40.31;101834.16;6399581;22;45315;-75
2024/01/07 04:11:38;;;;;;;;;1.33;1.00;;;;;20.66;40.12;101839.47;6399675;22;45417;-76
2024/01/07 04:14:04;;;;;;;;;1.67;1.67;;;;;20.66;39.84;101842.91;6399754;22;45277;-75
2024/01/07 04:16:29;;;;;;;;;2.67;2.67;;;;;20.66;40.36;101837.63;6400008;22;45291;-74
2024/01/07 04:18:54;;;;;;;;;1.00;1.00;;;;;20.62;39.90;101845.03;6400122;22;45254;-75
2024/01/07 04:21:21;;;;;;;;;2.33;1.33;;;;;20.63;40.10;101843.22;6371489;22;45342;-74
2024/01/07 04:23:46;;;;;;;;;0.00;0.00;;;;;20.68;39.81;101850.72;6399280;22;45256;-75
2024/01/07 04:26:11;;;;;;;;;1.00;1.00;;;;;20.69;39.85;101852.38;6399846;22;45388;-72
2024/01/07 04:28:41;;;;;;;;;1.00;1.00;;;;;20.55;39.87;101837.84;6399362;22;57945;-76
2024/01/07 04:31:06;;;;;;;;;1.00;1.00;;;;;20.60;40.09;101848.81;6400177;22;45216;-76
2024/01/07 04:33:32;;;;;;;;;3.00;2.00;;;;;20.69;40.05;101852.38;6399950;22;45406;-76
2024/01/07 04:35:58;;;;;;;;;1.00;1.00;;;;;20.50;40.22;101825.06;6399200;22;54684;-75
2024/01/07 04:38:24;;;;;;;;;6.00;1.00;;;;;20.68;40.05;101861.28;6370677;22;45363;-75
2024/01/07 04:40:51;;;;;;;;;2.00;2.00;;;;;20.67;40.09;101863.09;6399697;22;45350;-74
2024/01/07 04:43:16;;;;;;;;;2.33;2.00;;;;;20.62;40.01;101860.06;6399543;22;45423;-76
2024/01/07 04:45:41;;;;;;;;;0.67;0.00;;;;;20.62;40.18;101858.25;6399099;22;47153;-75
2024/01/07 04:48:07;;;;;;;;;1.33;1.33;;;;;20.53;39.94;101848.56;6399995;22;45358;-75
2024/01/07 04:50:32;;;;;;;;;2.00;2.00;;;;;20.56;39.73;101850.91;6400026;22;45347;-75
2024/01/07 04:52:58;;;;;;;;;2.00;1.67;;;;;20.65;39.96;101865.06;6398825;22;45482;-76
2024/01/07 04:55:23;;;;;;;;;2.00;2.00;;;;;20.65;39.83;101865.06;6399819;22;46018;-75
2024/01/07 04:57:48;;;;;;;;;1.00;1.00;;;;;20.65;39.59;101861.59;6370615;22;52300;-74
2024/01/07 05:00:14;;;;;;;;;1.00;1.00;;;;;20.59;39.80;101849.78;6400018;22;45269;-76
2024/01/07 05:02:39;;;;;;;;;1.00;1.00;;;;;20.55;39.69;101851.88;6370996;22;45260;-76
2024/01/07 05:05:05;;;;;;;;;1.00;1.00;;;;;20.63;39.72;101859.09;6399395;22;46936;-76
2024/01/07 05:07:30;;;;;;;;;1.00;1.00;;;;;20.58;39.70;101854.22;6398831;22;45325;-76
2024/01/07 05:09:55;;;;;;;;;2.00;2.00;;;;;20.62;39.86;101862.69;6399680;22;45219;-75
2024/01/07 05:12:21;;;;;;;;;1.00;1.00;;;;;20.59;40.17;101865.63;6399398;22;47517;-72
2024/01/07 05:14:46;;;;;;;;;1.33;1.33;;;;;20.63;39.70;101867.03;6370673;22;46910;-74
2024/01/07 05:17:12;;;;;;;;;1.67;1.00;;;;;20.36;39.67;101821.91;6399493;22;45225;-76
2024/01/07 05:19:40;;;;;;;;;1.00;1.00;;;;;20.46;40.26;101840.38;6399722;22;45262;-76
2024/01/07 05:22:05;;;;;;;;;2.00;2.00;;;;;20.60;39.77;101864.66;6399343;22;45281;-72
2024/01/07 05:24:31;;;;;;;;;1.00;1.00;;;;;20.50;39.86;101852.34;6399920;22;46577;-76
2024/01/07 05:26:56;;;;;;;;;0.00;0.00;;;;;20.58;39.81;101862.16;6372168;22;45286;-75
2024/01/07 05:29:22;;;;;;;;;0.33;0.33;;;;;20.63;39.79;101881.06;6401442;22;45302;-75
2024/01/07 05:31:48;;;;;;;;;1.67;1.67;;;;;20.58;39.81;101872.72;6400627;22;45485;-75
2024/01/07 05:34:14;;;;;;;;;1.00;1.00;;;;;20.63;39.52;101885.53;6400994;22;45366;-73
2024/01/07 05:36:39;;;;;;;;;0.00;0.00;;;;;20.62;39.67;101875.94;6400124;22;45231;-76
2024/01/07 05:39:04;;;;;;;;;1.00;1.00;;;;;20.21;39.72;101810.97;6400224;22;51708;-75
2024/01/07 05:41:30;;;;;;;;;1.00;1.00;;;;;20.61;39.86;101880.38;6400511;22;45493;-74
2024/01/07 05:43:55;;;;;;;;;1.67;1.00;;;;;20.63;39.61;101885.53;6400628;22;47836;-76
2024/01/07 05:46:20;;;;;;;;;2.00;1.00;;;;;20.63;39.75;101888.19;6400475;22;45275;-76
2024/01/07 05:48:47;;;;;;;;;2.00;1.00;;;;;20.63;39.84;101896.13;6400479;22;45260;-75
2024/01/07 05:51:14;;;;;;;;;1.00;1.00;;;;;20.16;39.85;101816.69;6400644;22;45752;-75
2024/01/07 05:53:40;;;;;;;;;0.00;0.00;;;;;20.53;39.77;101876.81;6400073;22;47028;-76
2024/01/07 05:56:07;;;;;;;;;0.00;0.00;;;;;20.58;39.85;101883.31;6400269;22;45278;-75
2024/01/07 05:58:32;;;;;;;;;1.00;1.00;;;;;20.57;39.70;101884.31;6401048;22;45322;-76
2024/01/07 06:00:58;;;;;;;;;0.67;0.67;;;;;20.61;39.88;101896.25;6400475;22;45442;-75
2024/01/07 06:03:23;;;;;;;;;2.00;2.00;;;;;20.61;39.81;101895.41;6400177;22;47215;-75
2024/01/07 06:05:48;;;;;;;;;1.00;1.00;;;;;20.54;39.49;101881.94;6400260;22;45314;-75
2024/01/07 06:08:14;;;;;;;;;1.00;1.00;;;;;20.43;39.50;101868.91;6400525;22;45208;-75
2024/01/07 06:10:41;;;;;;;;;0.00;0.00;;;;;20.57;39.79;101894.88;6400474;22;45121;-75
2024/01/07 06:13:07;;;;;;;;;0.00;0.00;;;;;20.52;39.50;101883.91;6400703;22;45194;-74
2024/01/07 06:15:32;;;;;;;;;1.00;1.00;;;;;20.60;39.70;101896.41;6400659;22;45325;-75
2024/01/07 06:17:57;;;;;;;;;3.00;0.00;;;;;20.59;39.85;101892.91;6400352;22;45336;-75
2024/01/07 06:20:23;;;;;;;;;1.00;1.00;;;;;20.51;39.75;101883.06;6400482;22;45444;-76
2024/01/07 06:22:49;;;;;;;;;0.00;0.00;;;;;20.56;39.75;101892.34;6400649;22;46071;-75
2024/01/07 06:25:14;;;;;;;;;1.33;1.00;;;;;20.45;39.56;101883.66;6400566;22;45368;-73
2024/01/07 06:27:39;;;;;;;;;1.00;1.00;;;;;20.60;39.60;101907.81;6400814;22;45229;-75
2024/01/07 06:30:06;;;;;;;;;1.00;1.00;;;;;20.59;39.51;101906.13;6400979;22;45492;-75
2024/01/07 06:32:32;;;;;;;;;1.00;0.00;;;;;20.60;39.50;101904.31;6400157;22;46046;-77
2024/01/07 06:35:00;;;;;;;;;1.00;1.00;;;;;20.60;39.62;101909.63;6399852;22;45481;-74
2024/01/07 06:37:25;;;;;;;;;1.00;1.00;;;;;20.46;39.72;101893.22;6400136;22;45318;-72
2024/01/07 06:39:51;;;;;;;;;2.00;0.67;;;;;20.46;39.76;101895.03;6400160;22;45376;-76
2024/01/07 06:42:16;;;;;;;;;1.00;1.00;;;;;20.49;39.49;101898.25;6400527;22;46199;-72
2024/01/07 06:44:42;;;;;;;;;0.00;0.00;;;;;20.60;39.58;101917.56;6400123;22;45161;-75
2024/01/07 06:47:07;;;;;;;;;0.00;0.00;;;;;20.60;39.36;101914.91;6400815;22;45220;-75
2024/01/07 06:49:33;;;;;;;;;0.00;0.00;;;;;20.60;39.40;101917.56;6399952;22;45203;-75
2024/01/07 06:51:58;;;;;;;;;1.67;1.67;;;;;20.27;39.48;101873.00;6400073;22;46106;-76
2024/01/07 06:54:24;;;;;;;;;1.00;1.00;;;;;20.60;39.44;101936.06;6400701;22;45236;-76
2024/01/07 06:56:49;;;;;;;;;0.00;0.00;;;;;20.45;39.28;101910.09;6400937;22;45471;-76
2024/01/07 06:59:15;;;;;;;;;4.00;1.00;;;;;20.53;39.37;101922.59;6400582;22;45337;-74
2024/01/07 07:01:40;;;;;;;;;0.00;0.00;;;;;20.59;39.39;101934.38;6400394;22;45354;-72
2024/01/07 07:04:05;;;;;;;;;0.67;0.00;;;;;20.59;39.20;101944.97;6399724;22;56808;-76
2024/01/07 07:06:31;;;;;;;;;1.00;1.00;;;;;20.58;39.31;101938.84;6400089;22;45373;-74
2024/01/07 07:08:56;;;;;;;;;0.00;0.00;;;;;20.54;39.30;101942.75;6400178;22;45283;-73
2024/01/07 07:11:21;;;;;;;;;0.67;0.67;;;;;20.51;39.64;101948.31;6400057;22;46940;-76
2024/01/07 07:13:47;;;;;;;;;1.33;1.33;;;;;20.58;39.28;101957.34;6399855;22;45393;-76
2024/01/07 07:16:12;;;;;;;;;3.00;2.00;;;;;20.49;39.26;101950.28;6400845;22;45478;-76
2024/01/07 07:18:37;;;;;;;;;0.00;0.00;;;;;20.56;39.24;101958.47;6399799;22;45457;-76
2024/01/07 07:21:03;;;;;;;;;0.00;0.00;;;;;20.60;39.36;101970.44;6400324;22;45986;-76
2024/01/07 07:23:28;;;;;;;;;1.00;1.00;;;;;20.59;39.25;101968.75;6400025;22;45338;-76
2024/01/07 07:25:53;;;;;;;;;1.00;1.00;;;;;20.58;39.58;101978.50;6400116;22;45296;-73
2024/01/07 07:28:19;;;;;;;;;2.00;1.00;;;;;20.54;39.46;101968.34;6400545;22;45320;-76
2024/01/07 07:30:44;;;;;;;;;1.00;1.00;;;;;20.59;39.12;101984.63;6371514;22;45956;-75
2024/01/07 07:33:10;;;;;;;;;1.00;1.00;;;;;20.58;39.50;101986.41;6399886;22;45304;-76
2024/01/07 07:35:35;;;;;;;;;1.00;1.00;;;;;20.46;39.30;101971.69;6400506;22;45312;-76
2024/01/07 07:38:00;;;;;;;;;0.33;0.33;;;;;20.46;39.00;101975.19;6400603;22;45681;-75
2024/01/07 07:40:26;;;;;;;;;0.67;0.67;;;;;20.59;39.28;101987.25;6399819;22;47195;-75
2024/01/07 07:42:51;;;;;;;;;1.00;1.00;;;;;20.45;39.16;101964.75;6400396;22;45291;-72
2024/01/07 07:45:16;;;;;;;;;0.00;0.00;;;;;20.36;39.26;101954.06;6399936;22;45244;-76
2024/01/07 07:47:44;;;;;;;;;2.00;2.00;;;;;20.58;39.49;102002.28;6399430;22;45383;-73
2024/01/07 07:50:10;;;;;;;;;1.00;1.00;;;;;20.58;39.21;101999.66;6399825;22;46857;-75
2024/01/07 07:52:36;;;;;;;;;1.00;1.00;;;;;20.59;39.37;101997.84;6400028;22;45298;-75
2024/01/07 07:55:01;;;;;;;;;2.00;2.00;;;;;20.57;39.79;102003.28;6371577;22;45640;-77
2024/01/07 07:57:26;;;;;;;;;2.00;1.00;;;;;20.60;39.51;101999.53;6400129;22;45872;-75
2024/01/07 07:59:52;;;;;;;;;0.00;0.00;;;;;20.55;39.57;101992.03;6400188;22;45274;-77
2024/01/07 08:02:18;;;;;;;;;0.67;0.67;;;;;20.61;39.16;102009.09;6399308;22;45296;-78
2024/01/07 08:04:43;;;;;;;;;2.67;1.00;;;;;20.56;39.73;101993.66;6399882;22;45262;-77
2024/01/07 08:07:09;;;;;;;;;0.00;0.00;;;;;20.66;39.64;102012.16;6400421;22;45271;-78
2024/01/07 08:09:38;;;;;;;;;1.00;1.00;;;;;20.65;39.34;102007.03;6400109;22;46031;-76
2024/01/07 08:12:04;;;;;;;;;0.00;0.00;;;;;20.68;39.24;102009.38;6399789;22;45222;-78
2024/01/07 08:14:31;;;;;;;;;3.67;0.33;;;;;20.64;39.75;102006.19;6399728;22;45330;-77
2024/01/07 08:16:56;;;;;;;;;0.00;0.00;;;;;20.46;39.75;101977.00;6399751;22;45358;-77
2024/01/07 08:19:21;;;;;;;;;0.33;0.33;;;;;20.69;39.50;102013.69;6399304;22;63594;-77
2024/01/07 08:21:47;;;;;;;;;0.00;0.00;;;;;20.69;39.58;102016.31;6371165;22;45400;-77
2024/01/07 08:24:12;;;;;;;;;0.67;0.67;;;;;20.69;39.43;102018.97;6400375;22;45327;-77
2024/01/07 08:26:38;;;;;;;;;1.67;1.67;;;;;20.69;39.74;102022.47;6371119;22;45336;-76
2024/01/07 08:29:03;;;;;;;;;0.00;0.00;;;;;20.69;39.77;102021.63;6399593;22;45914;-77
2024/01/07 08:31:29;;;;;;;;;0.00;0.00;;;;;20.71;39.77;102030.25;6399570;22;45276;-75
2024/01/07 08:33:54;;;;;;;;;1.00;1.00;;;;;20.71;39.77;102022.34;6400261;22;45309;-76
2024/01/07 08:36:19;;;;;;;;;1.00;1.00;;;;;20.70;39.56;102023.28;6400014;22;45245;-77
2024/01/07 08:38:46;;;;;;;;;2.00;0.00;;;;;20.73;39.76;102023.00;6399896;22;46211;-76
2024/01/07 08:41:11;;;;;;;;;1.00;1.00;;;;;20.74;39.92;102030.78;6400081;22;45255;-75
2024/01/07 08:43:36;;;;;;;;;0.00;0.00;;;;;20.76;39.46;102032.47;6399649;22;45208;-76
2024/01/07 08:46:04;;;;;;;;;1.00;1.00;;;;;20.67;39.95;102021.78;6399704;22;45102;-76
2024/01/07 08:48:29;;;;;;;;;0.00;0.00;;;;;20.77;39.58;102034.97;6399497;22;46301;-76
2024/01/07 08:50:55;;;;;;;;;1.00;1.00;;;;;20.44;39.80;101989.53;6370906;22;45272;-76
2024/01/07 08:53:22;;;;;;;;;1.00;1.00;;;;;20.78;40.00;102041.94;6400187;22;45235;-76
2024/01/07 08:55:47;;;;;;;;;1.00;1.00;;;;;20.65;39.59;102026.38;6399565;22;45224;-76
2024/01/07 08:58:14;;;;;;;;;0.67;0.67;;;;;20.77;39.44;102040.25;6400107;22;46199;-77
2024/01/07 09:00:39;;;;;;;;;0.00;0.00;;;;;20.79;39.88;102035.66;6400550;22;45239;-76
2024/01/07 09:03:06;;;;;;;;;1.00;1.00;;;;;20.80;39.90;102033.84;6400641;22;45208;-76
2024/01/07 09:05:31;;;;;;;;;0.67;0.67;;;;;20.78;39.50;102030.53;6400894;22;45425;-77
2024/01/07 09:07:57;;;;;;;;;0.00;0.00;;;;;20.75;39.88;102021.06;6400424;22;46355;-77
2024/01/07 09:10:22;;;;;;;;;0.67;0.00;;;;;20.80;39.90;102042.63;6372405;22;45163;-76
2024/01/07 09:12:49;;;;;;;;;2.50;0.00;;;;;20.82;40.05;102043.31;6401250;22;45114;-76
2024/01/07 09:15:18;;;;;;;;;0.33;0.33;;;;;20.82;39.90;102043.31;6400369;22;45293;-75
2024/01/07 09:17:43;;;;;;;;;1.00;1.00;;;;;20.82;39.82;102035.38;6401055;22;45378;-76
2024/01/07 09:20:10;;;;;;;;;0.67;0.67;;;;;20.60;40.04;102004.81;6400467;22;56084;-76
2024/01/07 09:22:35;;;;;;;;;1.33;1.33;;;;;20.65;39.68;102025.53;6400767;22;45243;-76
2024/01/07 09:25:05;;;;;;;;;0.33;0.33;;;;;20.84;40.14;102054.56;6400599;22;45353;-76
2024/01/07 09:27:31;;;;;;;;;1.00;1.00;;;;;20.85;39.58;102056.25;6400883;22;45335;-75
2024/01/07 09:29:57;;;;;;;;;1.00;0.33;;;;;20.81;40.03;102052.25;6399424;22;45374;-78
2024/01/07 09:32:22;;;;;;;;;1.00;0.33;;;;;20.87;40.02;102060.59;6400642;22;45307;-78
2024/01/07 09:34:47;;;;;;;;;0.00;0.00;;;;;20.78;40.22;102047.22;6400711;22;45488;-79
2024/01/07 09:37:13;;;;;;;;;1.00;1.00;;;;;20.88;39.85;102059.59;6400957;22;45513;-80
2024/01/07 09:39:40;;;;;;;;;0.00;0.00;;;;;20.87;39.89;102058.75;6400349;22;45271;-75
2024/01/07 09:42:12;;;;;;;;;1.00;1.00;;;;;20.89;39.90;102069.22;6400618;22;45301;-75
2024/01/07 09:44:37;;;;;;;;;0.33;0.33;;;;;20.78;39.88;102055.16;6400407;22;45326;-75
2024/01/07 09:47:05;;;;;;;;;3.00;0.00;;;;;20.89;39.96;102072.69;6400629;22;46187;-76
2024/01/07 09:49:31;;;;;;;;;0.00;0.00;;;;;20.85;40.27;102066.84;6401016;22;45247;-80
2024/01/07 09:52:01;;;;;;;;;1.00;1.00;;;;;20.81;40.35;102062.81;6400400;22;45237;-79
2024/01/07 09:54:27;;;;;;;;;0.67;0.67;;;;;20.83;40.18;102073.25;6372507;22;45255;-79
2024/01/07 09:57:00;;;;;;;;;3.33;1.00;;;;;20.92;40.45;102084.81;6400528;22;46079;-75
2024/01/07 09:59:28;;;;;;;;;1.00;1.00;;;;;20.83;40.32;102071.44;6371759;22;45302;-76
2024/01/07 10:01:54;;;;;;;;;0.00;0.00;;;;;20.92;40.12;102088.25;6400367;22;45274;-74
2024/01/07 10:04:19;;;;;;;;;2.00;0.33;;;;;20.88;40.59;102071.00;6400366;22;45519;-72
2024/01/07 10:06:45;;;;;;;;;1.33;1.33;;;;;20.93;40.25;102081.16;6400675;22;45785;-76
2024/01/07 10:09:11;;;;;;;;;2.00;0.33;;;;;20.94;40.08;102080.19;6399715;22;45212;-76
2024/01/07 10:11:37;;;;;;;;;1.67;1.00;;;;;20.94;40.24;102081.03;6399866;22;45218;-77
2024/01/07 10:14:02;;;;;;;;;1.00;1.00;;;;;20.96;40.39;102083.53;6372071;22;45209;-76
2024/01/07 10:16:28;;;;;;;;;1.00;1.00;;;;;20.96;40.32;102088.81;6399845;22;45257;-76
2024/01/07 10:18:53;;;;;;;;;1.00;1.00;;;;;20.96;39.97;102092.31;6400393;22;45232;-76
2024/01/07 10:21:18;;;;;;;;;0.00;0.00;;;;;20.84;40.22;102074.94;6400549;22;45413;-75
2024/01/07 10:23:44;;;;;;;;;1.00;1.00;;;;;20.97;40.31;102093.16;6400750;22;45369;-77
2024/01/07 10:26:09;;;;;;;;;0.00;0.00;;;;;20.99;40.21;102093.00;6400125;22;45329;-76
2024/01/07 10:28:34;;;;;;;;;1.00;1.00;;;;;20.99;40.26;102093.81;6400148;22;45312;-75
2024/01/07 10:31:00;;;;;;;;;0.67;0.67;;;;;20.85;40.61;102076.56;6400287;22;45236;-76
2024/01/07 10:33:30;;;;;;;;;0.67;0.67;;;;;20.98;40.23;102094.78;6400270;22;45260;-77
2024/01/07 10:36:03;;;;;;;;;0.00;0.00;;;;;20.98;40.24;102105.38;6400287;22;45340;-78
2024/01/07 10:38:29;;;;;;;;;1.00;1.00;;;;;20.99;39.93;102096.47;6400005;22;45338;-77
2024/01/07 10:40:58;;;;;;;;;0.67;0.67;;;;;20.80;39.80;102068.22;6399645;22;45244;-78
2024/01/07 10:43:28;;;;;;;;;1.00;1.00;;;;;20.99;39.55;102099.13;6400926;22;45225;-76
2024/01/07 10:45:55;;;;;;;;;0.67;0.67;;;;;20.99;39.84;102095.63;6400157;22;45380;-76
2024/01/07 10:48:25;;;;;;;;;1.00;1.00;;;;;20.87;39.94;102079.09;6400400;22;45235;-76
2024/01/07 10:50:55;;;;;;;;;3.67;1.00;;;;;20.91;40.23;102099.00;6400103;22;45338;-75
2024/01/07 10:53:22;;;;;;;;;0.00;0.00;;;;;20.99;39.80;102098.28;6371645;22;45179;-76
2024/01/07 10:55:54;;;;;;;;;0.33;0.33;;;;;20.98;39.92;102094.78;6399379;22;46127;-77
2024/01/07 10:58:20;;;;;;;;;0.00;0.00;;;;;20.90;40.25;102084.09;6400285;22;45326;-76
2024/01/07 11:00:47;;;;;;;;;1.67;1.00;;;;;20.92;40.28;102082.97;6400528;22;45311;-74
2024/01/07 11:03:30;;;;;;;;;0.67;0.00;;;;;20.94;39.95;102085.47;6400198;22;45110;-80
2024/01/07 11:06:04;;;;;;;;;1.67;0.67;;;;;20.97;40.22;102085.22;6399605;22;47290;-79
2024/01/07 11:08:48;;;;;;;;;1.00;0.00;;;;;20.98;39.62;102086.84;6400133;22;45245;-81
2024/01/07 11:11:23;;;;;;;;;1.00;1.00;;;;;20.92;38.03;102090.91;6399598;22;45331;-76
2024/01/07 11:13:48;;;;;;;;;2.00;2.00;;;;;20.87;38.65;102092.31;6399977;22;45313;-79
2024/01/07 11:16:39;;;;;;;;;2.00;2.00;;;;;20.87;39.08;102090.50;6399775;22;57894;-81
2024/01/07 11:19:05;;;;;;;;;3.00;1.00;;;;;20.67;38.92;102056.16;6371551;22;45427;-85